createdAt,value
2023-04-27T00:01:00.766Z,9.60
2023-04-27T00:03:28.485Z,9.59
2023-04-27T00:05:55.338Z,9.58
2023-04-27T00:08:22.069Z,9.59
2023-04-27T00:10:48.513Z,9.57
2023-04-27T00:13:14.929Z,9.55
2023-04-27T00:15:41.672Z,9.55
2023-04-27T00:18:08.202Z,9.50
2023-04-27T00:20:34.756Z,9.49
2023-04-27T00:23:01.213Z,9.46
2023-04-27T00:25:27.774Z,9.45
2023-04-27T00:27:54.332Z,9.47
2023-04-27T00:30:20.805Z,9.47
2023-04-27T00:32:47.233Z,9.44
2023-04-27T00:35:13.686Z,9.41
2023-04-27T00:37:40.153Z,9.43
2023-04-27T00:40:07.912Z,9.44
2023-04-27T00:42:35.222Z,9.46
2023-04-27T00:45:01.874Z,9.48
2023-04-27T00:47:30.192Z,9.47
2023-04-27T00:49:57.081Z,9.45
2023-04-27T00:52:23.606Z,9.38
2023-04-27T00:54:51.838Z,9.39
2023-04-27T00:57:18.671Z,9.38
2023-04-27T00:59:46.068Z,9.37
2023-04-27T01:02:13.652Z,9.36
2023-04-27T01:04:40.963Z,9.34
2023-04-27T01:07:07.382Z,9.35
2023-04-27T01:09:33.812Z,9.29
2023-04-27T01:12:00.238Z,9.28
2023-04-27T01:14:26.711Z,9.29
2023-04-27T01:16:53.183Z,9.30
2023-04-27T01:19:19.674Z,9.30
2023-04-27T01:21:46.587Z,9.30
2023-04-27T01:24:13.088Z,9.26
2023-04-27T01:26:39.517Z,9.25
2023-04-27T01:29:06.118Z,9.24
2023-04-27T01:31:32.840Z,9.23
2023-04-27T01:33:59.338Z,9.21
2023-04-27T01:36:27.800Z,9.19
2023-04-27T01:38:54.276Z,9.20
2023-04-27T01:41:20.800Z,9.16
2023-04-27T01:43:47.282Z,9.10
2023-04-27T01:46:14.384Z,9.07
2023-04-27T01:48:41.575Z,9.02
2023-04-27T01:51:08.203Z,8.99
2023-04-27T01:53:34.991Z,8.99
2023-04-27T01:56:01.652Z,9.00
2023-04-27T01:58:28.378Z,8.98
2023-04-27T02:00:54.868Z,8.97
2023-04-27T02:03:21.716Z,8.95
2023-04-27T02:05:48.323Z,8.91
2023-04-27T02:08:15.011Z,8.88
2023-04-27T02:10:41.544Z,8.85
2023-04-27T02:13:08.260Z,8.83
2023-04-27T02:15:35.466Z,8.82
2023-04-27T02:18:03.418Z,8.82
2023-04-27T02:20:31.218Z,8.84
2023-04-27T02:22:57.772Z,8.84
2023-04-27T02:25:24.333Z,8.82
2023-04-27T02:27:50.785Z,8.80
2023-04-27T02:30:17.871Z,8.76
2023-04-27T02:32:44.951Z,8.74
2023-04-27T02:35:11.454Z,8.77
2023-04-27T02:37:38.044Z,8.77
2023-04-27T02:40:07.972Z,8.75
2023-04-27T02:42:34.496Z,8.72
2023-04-27T02:45:00.962Z,8.76
2023-04-27T02:47:27.538Z,8.76
2023-04-27T02:49:54.065Z,8.79
2023-04-27T02:52:20.585Z,8.76
2023-04-27T02:54:47.089Z,8.77
2023-04-27T02:57:13.439Z,8.78
2023-04-27T02:59:39.857Z,8.81
2023-04-27T03:02:06.343Z,8.80
2023-04-27T03:04:32.778Z,8.79
2023-04-27T03:06:59.246Z,8.76
2023-04-27T03:09:25.803Z,8.74
2023-04-27T03:11:52.820Z,8.71
2023-04-27T03:14:19.457Z,8.66
2023-04-27T03:16:45.913Z,8.63
2023-04-27T03:19:12.671Z,8.61
2023-04-27T03:21:39.336Z,8.65
2023-04-27T03:24:06.091Z,8.67
2023-04-27T03:29:00.947Z,8.62
2023-04-27T03:31:27.456Z,8.60
2023-04-27T03:33:53.815Z,8.62
2023-04-27T03:36:20.851Z,8.64
2023-04-27T03:38:47.401Z,8.62
2023-04-27T03:41:13.905Z,8.65
2023-04-27T03:43:40.488Z,8.63
2023-04-27T03:46:06.968Z,8.63
2023-04-27T03:48:33.459Z,8.64
2023-04-27T03:51:01.135Z,8.62
2023-04-27T03:53:27.603Z,8.57
2023-04-27T03:55:53.996Z,8.56
2023-04-27T03:58:20.431Z,8.58
2023-04-27T04:00:46.871Z,8.60
2023-04-27T04:03:13.760Z,8.64
2023-04-27T04:05:40.812Z,8.59
2023-04-27T04:08:07.231Z,8.53
2023-04-27T04:10:33.613Z,8.50
2023-04-27T04:13:00.012Z,8.49
2023-04-27T04:15:26.449Z,8.46
2023-04-27T04:17:52.967Z,8.44
2023-04-27T04:20:19.572Z,8.43
2023-04-27T04:22:46.008Z,8.45
2023-04-27T04:25:12.965Z,8.49
2023-04-27T04:27:39.721Z,8.53
2023-04-27T04:30:07.152Z,8.57
2023-04-27T04:32:34.493Z,8.58
2023-04-27T04:35:01.563Z,8.60
2023-04-27T04:37:28.642Z,8.59
2023-04-27T04:39:55.096Z,8.59
2023-04-27T04:42:21.587Z,8.60
2023-04-27T04:44:48.034Z,8.61
2023-04-27T04:47:14.436Z,8.61
2023-04-27T04:49:41.009Z,8.61
2023-04-27T04:52:07.549Z,8.57
2023-04-27T04:54:34.039Z,8.59
2023-04-27T04:57:02.304Z,8.60
2023-04-27T04:59:30.369Z,8.60
2023-04-27T05:01:58.525Z,8.63
2023-04-27T05:04:25.501Z,8.69
2023-04-27T05:06:52.990Z,8.72
2023-04-27T05:09:19.437Z,8.73
2023-04-27T05:11:45.975Z,8.77
2023-04-27T05:14:12.530Z,8.79
2023-04-27T05:16:39.233Z,8.81
2023-04-27T05:19:06.047Z,8.81
2023-04-27T05:21:33.526Z,8.87
2023-04-27T05:24:00.439Z,8.87
2023-04-27T05:26:27.086Z,8.83
2023-04-27T05:28:53.483Z,8.82
2023-04-27T05:31:20.475Z,8.84
2023-04-27T05:33:46.989Z,8.90
2023-04-27T05:36:14.536Z,8.98
2023-04-27T05:38:41.679Z,9.03
2023-04-27T05:41:08.257Z,9.07
2023-04-27T05:43:38.728Z,9.13
2023-04-27T05:46:05.451Z,9.22
2023-04-27T05:48:32.028Z,9.27
2023-04-27T05:51:02.752Z,9.27
2023-04-27T05:53:33.475Z,9.30
2023-04-27T05:56:01.141Z,9.34
2023-04-27T05:58:27.949Z,9.43
2023-04-27T06:00:54.744Z,9.53
2023-04-27T06:03:23.232Z,9.64
2023-04-27T06:05:56.790Z,9.71
2023-04-27T06:08:24.562Z,9.77
2023-04-27T06:10:51.601Z,9.80
2023-04-27T06:13:18.852Z,9.88
2023-04-27T06:15:46.256Z,9.99
2023-04-27T06:18:13.154Z,10.05
2023-04-27T06:20:39.658Z,10.12
2023-04-27T06:23:06.005Z,10.18
2023-04-27T06:25:32.524Z,10.18
2023-04-27T06:27:58.870Z,10.19
2023-04-27T06:30:25.543Z,10.21
2023-04-27T06:32:52.512Z,10.30
2023-04-27T06:35:19.187Z,10.36
2023-04-27T06:37:45.707Z,10.46
2023-04-27T06:40:12.349Z,10.53
2023-04-27T06:42:38.797Z,10.60
2023-04-27T06:45:05.703Z,10.65
2023-04-27T06:47:32.121Z,10.75
2023-04-27T06:49:58.665Z,10.81
2023-04-27T06:52:25.145Z,10.87
2023-04-27T06:54:51.506Z,10.95
2023-04-27T06:57:17.912Z,11.02
2023-04-27T06:59:44.410Z,11.06
2023-04-27T07:02:10.795Z,11.10
2023-04-27T07:04:38.216Z,11.15
2023-04-27T07:07:04.683Z,11.24
2023-04-27T07:09:31.282Z,11.39
2023-04-27T07:11:58.898Z,11.45
2023-04-27T07:14:26.018Z,11.52
2023-04-27T07:16:52.391Z,11.62
2023-04-27T07:19:18.795Z,11.73
2023-04-27T07:21:45.217Z,11.79
2023-04-27T07:24:11.735Z,11.82
2023-04-27T07:26:38.155Z,11.91
2023-04-27T07:29:14.462Z,12.00
2023-04-27T07:31:46.181Z,12.05
2023-04-27T07:34:12.781Z,12.04
2023-04-27T07:36:40.105Z,11.97
2023-04-27T07:39:08.057Z,12.23
2023-04-27T07:41:35.484Z,12.77
2023-04-27T07:44:02.848Z,13.08
2023-04-27T07:46:31.663Z,13.31
2023-04-27T07:48:59.697Z,13.62
2023-04-27T07:51:28.499Z,13.73
2023-04-27T07:53:55.337Z,13.71
2023-04-27T07:56:22.041Z,13.65
2023-04-27T07:58:48.449Z,13.74
2023-04-27T08:01:14.968Z,13.88
2023-04-27T08:03:41.485Z,13.82
2023-04-27T08:06:09.003Z,13.79
2023-04-27T08:08:36.397Z,13.92
2023-04-27T08:11:03.083Z,13.96
2023-04-27T08:13:29.700Z,14.16
2023-04-27T08:15:59.230Z,14.42
2023-04-27T08:18:27.110Z,14.71
2023-04-27T08:20:53.986Z,14.78
2023-04-27T08:23:20.607Z,14.80
2023-04-27T08:25:48.374Z,14.92
2023-04-27T08:28:15.377Z,14.92
2023-04-27T08:30:42.227Z,14.93
2023-04-27T08:33:08.874Z,15.03
2023-04-27T08:35:35.450Z,15.10
2023-04-27T08:38:01.989Z,15.04
2023-04-27T08:40:28.371Z,15.19
2023-04-27T08:42:58.834Z,15.42
2023-04-27T08:45:27.197Z,15.58
2023-04-27T08:47:54.134Z,15.64
2023-04-27T08:50:21.273Z,15.77
2023-04-27T08:52:48.113Z,15.86
2023-04-27T08:55:16.749Z,15.84
2023-04-27T08:57:57.469Z,15.70
2023-04-27T09:00:25.366Z,15.71
2023-04-27T09:02:51.882Z,15.47
2023-04-27T09:05:21.060Z,15.46
2023-04-27T09:08:06.522Z,15.58
2023-04-27T09:10:47.426Z,15.76
2023-04-27T09:13:14.052Z,15.95
2023-04-27T09:15:48.644Z,16.08
2023-04-27T09:18:20.424Z,16.15
2023-04-27T09:20:48.745Z,16.30
2023-04-27T09:23:35.377Z,16.38
2023-04-27T09:26:08.157Z,16.35
2023-04-27T09:28:38.118Z,16.44
2023-04-27T09:31:05.126Z,16.53
2023-04-27T09:33:35.355Z,16.65
2023-04-27T09:36:04.679Z,16.60
2023-04-27T09:38:31.756Z,16.67
2023-04-27T09:40:59.190Z,16.91
2023-04-27T09:43:28.538Z,17.04
2023-04-27T09:45:55.741Z,16.88
2023-04-27T09:48:23.659Z,16.66
2023-04-27T09:50:52.176Z,16.58
2023-04-27T09:53:20.922Z,16.70
2023-04-27T09:55:56.171Z,16.82
2023-04-27T09:58:34.825Z,17.03
2023-04-27T10:01:32.434Z,17.03
2023-04-27T10:04:24.967Z,16.94
2023-04-27T10:06:58.073Z,16.87
2023-04-27T10:09:24.984Z,16.98
2023-04-27T10:11:53.619Z,16.99
2023-04-27T10:14:24.113Z,17.11
2023-04-27T10:16:54.552Z,17.30
2023-04-27T10:19:24.148Z,17.42
2023-04-27T10:22:00.288Z,17.36
2023-04-27T10:24:37.735Z,17.22
2023-04-27T10:27:06.740Z,17.42
2023-04-27T10:29:44.683Z,17.46
2023-04-27T10:32:21.068Z,17.31
2023-04-27T10:34:49.077Z,17.31
2023-04-27T10:37:16.018Z,17.49
2023-04-27T10:39:49.141Z,17.70
2023-04-27T10:42:28.070Z,17.65
2023-04-27T10:44:57.173Z,17.46
2023-04-27T10:47:26.216Z,17.18
2023-04-27T10:49:54.432Z,17.22
2023-04-27T10:52:21.055Z,17.44
2023-04-27T10:54:47.691Z,17.79
2023-04-27T10:57:14.154Z,18.19
2023-04-27T10:59:51.881Z,18.39
2023-04-27T11:02:26.484Z,18.42
2023-04-27T11:04:54.227Z,18.39
2023-04-27T11:07:25.700Z,18.05
2023-04-27T11:09:53.180Z,18.01
2023-04-27T11:12:19.761Z,17.84
2023-04-27T11:14:46.372Z,17.98
2023-04-27T11:17:13.325Z,17.99
2023-04-27T11:19:49.849Z,18.23
2023-04-27T11:22:16.900Z,18.31
2023-04-27T11:24:51.735Z,18.59
2023-04-27T11:27:19.978Z,18.49
2023-04-27T11:29:48.192Z,18.22
2023-04-27T11:32:21.801Z,18.42
2023-04-27T11:34:54.647Z,18.44
2023-04-27T11:37:26.580Z,18.34
2023-04-27T11:39:57.520Z,18.31
2023-04-27T11:42:29.004Z,18.66
2023-04-27T11:44:58.107Z,18.79
2023-04-27T11:47:27.705Z,18.62
2023-04-27T11:49:59.989Z,18.36
2023-04-27T11:52:37.759Z,18.33
2023-04-27T11:55:05.897Z,18.59
2023-04-27T11:57:34.277Z,18.57
2023-04-27T12:00:02.434Z,18.47
2023-04-27T12:02:31.475Z,18.44
2023-04-27T12:04:59.739Z,18.34
2023-04-27T12:07:27.049Z,18.51
2023-04-27T12:09:53.565Z,18.92
2023-04-27T12:12:24.229Z,19.30
2023-04-27T12:14:51.984Z,19.58
2023-04-27T12:17:19.124Z,19.58
2023-04-27T12:19:45.848Z,19.53
2023-04-27T12:22:14.180Z,19.54
2023-04-27T12:24:40.669Z,19.64
2023-04-27T12:27:07.642Z,19.74
2023-04-27T12:29:34.131Z,19.93
2023-04-27T12:32:02.261Z,20.05
2023-04-27T12:34:28.852Z,20.15
2023-04-27T12:36:57.050Z,19.98
2023-04-27T12:39:25.340Z,19.51
2023-04-27T12:41:53.319Z,19.57
2023-04-27T12:44:21.296Z,19.69
2023-04-27T12:46:50.633Z,19.84
2023-04-27T12:49:19.504Z,20.00
2023-04-27T12:51:47.829Z,20.06
2023-04-27T12:54:14.522Z,20.12
2023-04-27T12:56:43.233Z,20.13
2023-04-27T12:59:09.719Z,19.92
2023-04-27T13:01:36.573Z,19.88
2023-04-27T13:04:06.065Z,19.92
2023-04-27T13:06:32.712Z,19.93
2023-04-27T13:08:59.733Z,19.76
2023-04-27T13:11:26.993Z,19.54
2023-04-27T13:13:54.801Z,19.43
2023-04-27T13:16:22.643Z,19.41
2023-04-27T13:18:52.010Z,19.42
2023-04-27T13:21:18.595Z,19.70
2023-04-27T13:23:44.962Z,19.99
2023-04-27T13:26:11.743Z,20.19
2023-04-27T13:28:38.324Z,20.23
2023-04-27T13:31:05.545Z,20.10
2023-04-27T13:33:34.381Z,20.29
2023-04-27T13:36:02.401Z,20.23
2023-04-27T13:38:28.997Z,20.32
2023-04-27T13:40:56.873Z,20.51
2023-04-27T13:43:23.370Z,20.72
2023-04-27T13:45:52.574Z,20.53
2023-04-27T13:48:19.429Z,20.39
2023-04-27T13:50:46.713Z,20.46
2023-04-27T13:53:13.378Z,20.69
2023-04-27T13:55:39.775Z,20.58
2023-04-27T13:58:06.185Z,20.43
2023-04-27T14:00:34.499Z,20.54
2023-04-27T14:03:01.621Z,20.55
2023-04-27T14:05:28.673Z,20.50
2023-04-27T14:07:55.322Z,20.35
2023-04-27T14:10:23.321Z,20.17
2023-04-27T14:12:49.834Z,19.85
2023-04-27T14:15:16.378Z,19.76
2023-04-27T14:17:42.980Z,19.50
2023-04-27T14:20:09.685Z,19.31
2023-04-27T14:22:36.875Z,19.30
2023-04-27T14:25:03.432Z,19.10
2023-04-27T14:27:29.829Z,19.01
2023-04-27T14:29:56.250Z,19.08
2023-04-27T14:32:23.170Z,19.27
2023-04-27T14:34:49.570Z,19.40
2023-04-27T14:37:16.059Z,19.35
2023-04-27T14:39:45.126Z,19.30
2023-04-27T14:42:11.842Z,19.24
2023-04-27T14:44:38.259Z,19.23
2023-04-27T14:47:04.907Z,19.11
2023-04-27T14:49:31.412Z,18.98
2023-04-27T14:51:58.699Z,18.76
2023-04-27T14:54:25.222Z,18.62
2023-04-27T14:56:51.841Z,18.53
2023-04-27T14:59:18.306Z,18.63
2023-04-27T15:01:44.714Z,18.74
2023-04-27T15:04:12.144Z,18.85
2023-04-27T15:06:39.263Z,18.84
2023-04-27T15:09:06.160Z,18.85
2023-04-27T15:11:32.838Z,18.94
2023-04-27T15:13:59.338Z,19.02
2023-04-27T15:16:25.824Z,19.01
2023-04-27T15:18:52.312Z,19.01
2023-04-27T15:21:18.729Z,19.22
2023-04-27T15:23:45.162Z,19.34
2023-04-27T15:26:11.575Z,19.48
2023-04-27T15:28:38.120Z,19.49
2023-04-27T15:31:04.559Z,19.65
2023-04-27T15:33:31.051Z,19.75
2023-04-27T15:35:59.103Z,19.67
2023-04-27T15:38:26.308Z,19.55
2023-04-27T15:40:52.887Z,19.50
2023-04-27T15:43:19.274Z,19.30
2023-04-27T15:45:45.654Z,19.13
2023-04-27T15:48:12.233Z,18.95
2023-04-27T15:50:38.805Z,18.83
2023-04-27T15:53:05.277Z,18.66
2023-04-27T15:55:32.141Z,18.54
2023-04-27T15:57:58.558Z,18.57
2023-04-27T16:00:25.035Z,18.52
2023-04-27T16:02:51.985Z,18.49
2023-04-27T16:05:18.501Z,18.51
2023-04-27T16:07:45.584Z,18.45
2023-04-27T16:10:12.934Z,18.43
2023-04-27T16:12:39.609Z,18.44
2023-04-27T16:15:10.058Z,18.41
2023-04-27T16:17:37.854Z,18.45
2023-04-27T16:20:08.197Z,18.33
2023-04-27T16:22:35.735Z,18.20
2023-04-27T16:25:02.496Z,18.30
2023-04-27T16:27:29.001Z,18.43
2023-04-27T16:29:56.275Z,18.51
2023-04-27T16:32:23.087Z,18.54
2023-04-27T16:34:49.959Z,18.51
2023-04-27T16:37:16.424Z,18.40
2023-04-27T16:39:42.960Z,18.29
2023-04-27T16:42:09.731Z,18.26
2023-04-27T16:44:37.920Z,18.15
2023-04-27T16:47:04.388Z,18.07
2023-04-27T16:49:30.931Z,18.03
2023-04-27T16:51:57.410Z,18.06
2023-04-27T16:54:23.797Z,18.10
2023-04-27T16:56:50.523Z,18.11
2023-04-27T16:59:17.149Z,18.12
2023-04-27T17:01:43.766Z,18.08
2023-04-27T17:04:10.752Z,18.04
2023-04-27T17:06:37.319Z,18.00
2023-04-27T17:09:04.862Z,17.91
2023-04-27T17:11:31.640Z,17.81
2023-04-27T17:13:58.166Z,17.74
2023-04-27T17:16:26.895Z,17.71
2023-04-27T17:18:54.300Z,17.69
2023-04-27T17:21:22.583Z,17.69
2023-04-27T17:23:50.682Z,17.67
2023-04-27T17:26:19.998Z,17.62
2023-04-27T17:28:47.360Z,17.57
2023-04-27T17:31:14.146Z,17.47
2023-04-27T17:33:40.622Z,17.34
2023-04-27T17:36:07.298Z,17.25
2023-04-27T17:38:33.726Z,17.18
2023-04-27T17:41:00.313Z,17.13
2023-04-27T17:43:26.917Z,17.12
2023-04-27T17:45:53.357Z,17.06
2023-04-27T17:48:20.182Z,17.11
2023-04-27T17:50:46.595Z,17.16
2023-04-27T17:53:15.212Z,17.17
2023-04-27T17:55:45.322Z,17.38
2023-04-27T17:58:13.474Z,17.34
2023-04-27T18:00:41.962Z,17.19
2023-04-27T18:03:08.584Z,17.00
2023-04-27T18:05:35.359Z,16.81
2023-04-27T18:08:01.797Z,16.66
2023-04-27T18:10:28.269Z,16.52
2023-04-27T18:12:54.748Z,16.46
2023-04-27T18:15:21.308Z,16.40
2023-04-27T18:17:47.822Z,16.31
2023-04-27T18:20:15.535Z,16.26
2023-04-27T18:22:41.919Z,16.23
2023-04-27T18:25:09.763Z,16.18
2023-04-27T18:27:37.662Z,16.10
2023-04-27T18:30:12.545Z,16.04
2023-04-27T18:32:39.012Z,15.97
2023-04-27T18:35:06.441Z,15.89
2023-04-27T18:37:33.173Z,15.83
2023-04-27T18:39:59.687Z,15.76
2023-04-27T18:42:26.225Z,15.69
2023-04-27T18:44:55.225Z,15.63
2023-04-27T18:47:21.852Z,15.55
2023-04-27T18:49:48.388Z,15.50
2023-04-27T18:52:14.881Z,15.46
2023-04-27T18:54:42.087Z,15.42
2023-04-27T18:57:10.195Z,15.37
2023-04-27T18:59:39.320Z,15.32
2023-04-27T19:02:07.116Z,15.30
2023-04-27T19:04:34.036Z,15.27
2023-04-27T19:07:01.432Z,15.26
2023-04-27T19:09:28.032Z,15.21
2023-04-27T19:12:02.836Z,15.14
2023-04-27T19:14:31.485Z,15.09
2023-04-27T19:16:58.013Z,15.05
2023-04-27T19:19:25.885Z,15.03
2023-04-27T19:21:52.506Z,14.99
2023-04-27T19:24:19.251Z,14.94
2023-04-27T19:26:47.455Z,14.87
2023-04-27T19:29:14.178Z,14.83
2023-04-27T19:31:40.979Z,14.78
2023-04-27T19:34:07.506Z,14.73
2023-04-27T19:36:33.982Z,14.66
2023-04-27T19:39:00.611Z,14.60
2023-04-27T19:41:27.147Z,14.54
2023-04-27T19:43:53.587Z,14.48
2023-04-27T19:46:20.213Z,14.43
2023-04-27T19:48:46.718Z,14.37
2023-04-27T19:51:14.553Z,14.30
2023-04-27T19:53:41.196Z,14.28
2023-04-27T19:56:09.513Z,14.31
2023-04-27T19:58:37.029Z,14.35
2023-04-27T20:01:03.945Z,14.38
2023-04-27T20:03:31.731Z,14.37
2023-04-27T20:05:58.629Z,14.33
2023-04-27T20:08:25.668Z,14.30
2023-04-27T20:10:52.200Z,14.23
2023-04-27T20:13:18.895Z,14.16
2023-04-27T20:15:46.481Z,14.11
2023-04-27T20:18:13.138Z,14.09
2023-04-27T20:20:41.904Z,14.06
2023-04-27T20:23:08.502Z,14.03
2023-04-27T20:25:34.974Z,13.98
2023-04-27T20:28:01.479Z,13.93
2023-04-27T20:30:28.760Z,13.90
2023-04-27T20:32:56.408Z,13.83
2023-04-27T20:35:24.123Z,13.79
2023-04-27T20:37:50.568Z,13.75
2023-04-27T20:40:18.001Z,13.76
2023-04-27T20:42:45.658Z,13.72
2023-04-27T20:45:12.280Z,13.68
2023-04-27T20:47:38.806Z,13.68
2023-04-27T20:50:06.272Z,13.65
2023-04-27T20:52:34.546Z,13.63
2023-04-27T20:55:01.630Z,13.60
2023-04-27T20:57:28.082Z,13.60
2023-04-27T20:59:54.659Z,13.62
2023-04-27T21:02:21.210Z,13.61
2023-04-27T21:04:47.722Z,13.59
2023-04-27T21:07:14.600Z,13.61
2023-04-27T21:09:41.526Z,13.60
2023-04-27T21:12:08.603Z,13.56
2023-04-27T21:14:35.124Z,13.50
2023-04-27T21:17:01.603Z,13.47
2023-04-27T21:19:28.118Z,13.46
2023-04-27T21:21:54.590Z,13.43
2023-04-27T21:24:21.227Z,13.38
2023-04-27T21:26:47.749Z,13.34
2023-04-27T21:29:14.117Z,13.30
2023-04-27T21:31:40.944Z,13.30
2023-04-27T21:34:08.155Z,13.25
2023-04-27T21:36:34.709Z,13.18
2023-04-27T21:39:02.576Z,13.17
2023-04-27T21:41:29.103Z,13.14
2023-04-27T21:43:55.598Z,13.06
2023-04-27T21:46:23.076Z,13.01
2023-04-27T21:48:49.570Z,12.96
2023-04-27T21:51:17.525Z,12.93
2023-04-27T21:53:43.902Z,12.86
2023-04-27T21:56:10.453Z,12.85
2023-04-27T21:58:36.885Z,12.84
2023-04-27T22:01:03.340Z,12.80
2023-04-27T22:03:31.104Z,12.77
2023-04-27T22:05:57.655Z,12.76
2023-04-27T22:08:24.621Z,12.74
2023-04-27T22:10:51.169Z,12.72
2023-04-27T22:13:19.235Z,12.73
2023-04-27T22:15:47.256Z,12.71
2023-04-27T22:18:14.872Z,12.70
2023-04-27T22:20:42.549Z,12.69
2023-04-27T22:23:09.413Z,12.67
2023-04-27T22:25:36.346Z,12.64
2023-04-27T22:28:02.840Z,12.62
2023-04-27T22:30:30.294Z,12.57
2023-04-27T22:32:57.566Z,12.51
2023-04-27T22:35:27.261Z,12.47
2023-04-27T22:37:55.981Z,12.46
2023-04-27T22:40:22.556Z,12.45
2023-04-27T22:42:49.104Z,12.46
2023-04-27T22:45:15.895Z,12.44
2023-04-27T22:47:44.511Z,12.43
2023-04-27T22:50:11.948Z,12.46
2023-04-27T22:52:42.010Z,12.47
2023-04-27T22:55:09.420Z,12.45
2023-04-27T22:57:35.916Z,12.45
2023-04-27T23:00:05.091Z,12.46
2023-04-27T23:02:31.971Z,12.47
2023-04-27T23:04:58.901Z,12.46
2023-04-27T23:07:25.354Z,12.44
2023-04-27T23:09:52.812Z,12.42
2023-04-27T23:12:20.721Z,12.43
2023-04-27T23:14:47.252Z,12.45
2023-04-27T23:17:15.289Z,12.44
2023-04-27T23:19:41.826Z,12.42
2023-04-27T23:22:08.276Z,12.40
2023-04-27T23:24:34.700Z,12.39
2023-04-27T23:27:01.412Z,12.38
2023-04-27T23:29:27.888Z,12.38
2023-04-27T23:31:54.343Z,12.39
2023-04-27T23:34:20.752Z,12.42
2023-04-27T23:36:47.338Z,12.40
2023-04-27T23:39:13.799Z,12.42
2023-04-27T23:41:40.204Z,12.42
2023-04-27T23:44:06.801Z,12.41
2023-04-27T23:46:33.502Z,12.40
2023-04-27T23:48:59.893Z,12.40
2023-04-27T23:51:27.060Z,12.40
2023-04-27T23:53:53.407Z,12.36
2023-04-27T23:56:20.142Z,12.33
2023-04-27T23:58:46.538Z,12.33
